createdAt,value
2022-08-11T00:01:59.050Z,23.80
2022-08-11T00:04:34.212Z,23.78
2022-08-11T00:07:03.528Z,23.77
2022-08-11T00:09:38.989Z,23.74
2022-08-11T00:12:14.236Z,23.70
2022-08-11T00:14:41.518Z,23.69
2022-08-11T00:17:13.039Z,23.66
2022-08-11T00:20:12.253Z,23.66
2022-08-11T00:22:30.378Z,23.55
2022-08-11T00:25:01.736Z,23.53
2022-08-11T00:27:36.606Z,23.52
2022-08-11T00:30:08.630Z,23.48
2022-08-11T00:32:38.343Z,23.44
2022-08-11T00:35:55.088Z,23.37
2022-08-11T00:37:56.571Z,23.32
2022-08-11T00:40:44.165Z,23.29
2022-08-11T00:43:22.161Z,23.27
2022-08-11T00:46:16.281Z,23.24
2022-08-11T00:49:04.400Z,23.17
2022-08-11T00:52:03.753Z,23.08
2022-08-11T00:55:03.310Z,23.01
2022-08-11T00:57:41.816Z,22.95
2022-08-11T01:00:11.228Z,22.93
2022-08-11T01:02:56.359Z,22.95
2022-08-11T01:06:00.139Z,22.94
2022-08-11T01:08:58.910Z,22.93
2022-08-11T01:11:56.054Z,22.91
2022-08-11T01:15:13.067Z,22.86
2022-08-11T01:18:28.819Z,22.77
2022-08-11T01:21:14.064Z,22.72
2022-08-11T01:24:17.147Z,22.66
2022-08-11T01:26:43.483Z,22.58
2022-08-11T01:29:54.141Z,22.58
2022-08-11T01:33:08.026Z,22.51
2022-08-11T01:36:04.744Z,22.53
2022-08-11T01:39:18.779Z,22.53
2022-08-11T01:42:24.232Z,22.48
2022-08-11T01:45:02.805Z,22.43
2022-08-11T01:47:54.316Z,22.42
2022-08-11T01:50:40.424Z,22.37
2022-08-11T01:53:27.380Z,22.27
2022-08-11T01:56:18.737Z,22.22
2022-08-11T01:59:08.785Z,22.23
2022-08-11T02:01:50.412Z,22.21
2022-08-11T02:04:25.874Z,22.25
2022-08-11T02:07:03.112Z,22.18
2022-08-11T02:10:23.320Z,22.14
2022-08-11T02:12:58.282Z,22.12
2022-08-11T02:15:42.510Z,22.10
2022-08-11T02:18:52.587Z,22.11
2022-08-11T02:21:47.714Z,22.08
2022-08-11T02:24:37.135Z,22.06
2022-08-11T02:27:13.821Z,22.04
2022-08-11T02:30:04.997Z,21.99
2022-08-11T02:33:25.510Z,21.90
2022-08-11T02:36:19.673Z,21.81
2022-08-11T02:39:07.840Z,21.79
2022-08-11T02:42:08.872Z,21.80
2022-08-11T02:45:09.933Z,21.79
2022-08-11T02:48:06.905Z,21.79
2022-08-11T02:50:42.160Z,21.74
2022-08-11T02:53:16.789Z,21.74
2022-08-11T02:56:08.680Z,21.70
2022-08-11T02:58:35.465Z,21.66
2022-08-11T03:01:28.322Z,21.62
2022-08-11T03:04:10.889Z,21.62
2022-08-11T03:07:28.125Z,21.61
2022-08-11T03:10:06.949Z,21.58
2022-08-11T03:13:02.927Z,21.54
2022-08-11T03:16:08.861Z,21.48
2022-08-11T03:19:13.929Z,21.45
2022-08-11T03:22:07.254Z,21.43
2022-08-11T03:24:46.373Z,21.42
2022-08-11T03:27:39.428Z,21.40
2022-08-11T03:30:08.052Z,21.37
2022-08-11T03:33:12.414Z,21.36
2022-08-11T03:36:00.383Z,21.34
2022-08-11T03:38:49.091Z,21.29
2022-08-11T03:42:01.788Z,21.25
2022-08-11T03:44:46.528Z,21.23
2022-08-11T03:47:23.819Z,21.19
2022-08-11T03:50:07.340Z,21.18
2022-08-11T03:52:36.964Z,21.15
2022-08-11T03:55:28.379Z,21.12
2022-08-11T03:58:03.783Z,21.04
2022-08-11T04:00:55.033Z,21.02
2022-08-11T04:04:03.176Z,20.97
2022-08-11T04:07:07.016Z,20.92
2022-08-11T04:09:36.193Z,20.88
2022-08-11T04:12:47.131Z,20.86
2022-08-11T04:16:11.870Z,20.84
2022-08-11T04:18:58.342Z,20.80
2022-08-11T04:22:15.227Z,20.79
2022-08-11T04:25:23.049Z,20.75
2022-08-11T04:28:28.867Z,20.69
2022-08-11T04:31:08.472Z,20.69
2022-08-11T04:33:56.451Z,20.68
2022-08-11T04:36:43.501Z,20.64
2022-08-11T04:39:28.003Z,20.65
2022-08-11T04:42:31.873Z,20.68
2022-08-11T04:45:34.246Z,20.67
2022-08-11T04:48:37.906Z,20.69
2022-08-11T04:51:58.042Z,20.73
2022-08-11T04:55:20.590Z,20.74
2022-08-11T04:58:20.958Z,20.71
2022-08-11T05:01:41.820Z,20.73
2022-08-11T05:04:54.871Z,20.73
2022-08-11T05:07:49.510Z,20.73
2022-08-11T05:10:41.408Z,20.78
2022-08-11T05:13:30.812Z,20.82
2022-08-11T05:16:28.938Z,20.86
2022-08-11T05:19:16.343Z,20.88
2022-08-11T05:22:11.717Z,20.94
2022-08-11T05:25:04.667Z,21.00
2022-08-11T05:28:08.671Z,21.07
2022-08-11T05:30:56.932Z,21.17
2022-08-11T05:34:06.516Z,21.28
2022-08-11T05:36:48.018Z,21.42
2022-08-11T05:39:43.054Z,21.57
2022-08-11T05:42:29.937Z,21.79
2022-08-11T05:45:23.730Z,22.19
2022-08-11T05:48:10.104Z,22.51
2022-08-11T05:50:56.073Z,22.85
2022-08-11T05:53:45.731Z,23.26
2022-08-11T05:56:19.717Z,23.78
2022-08-11T05:58:54.732Z,24.32
2022-08-11T06:01:26.799Z,24.88
2022-08-11T06:04:14.124Z,25.31
2022-08-11T06:06:52.551Z,25.78
2022-08-11T06:09:36.496Z,26.19
2022-08-11T06:12:24.722Z,26.59
2022-08-11T06:14:55.187Z,26.93
2022-08-11T06:17:38.491Z,27.18
2022-08-11T06:20:14.674Z,27.49
2022-08-11T06:22:48.523Z,27.82
2022-08-11T06:25:17.939Z,28.04
2022-08-11T06:27:45.983Z,28.27
2022-08-11T06:30:17.048Z,28.48
2022-08-11T06:32:44.815Z,28.76
2022-08-11T06:35:25.409Z,29.02
2022-08-11T06:38:30.303Z,29.24
2022-08-11T06:41:29.217Z,29.44
2022-08-11T06:44:13.701Z,29.62
2022-08-11T06:46:48.021Z,29.74
2022-08-11T06:49:35.047Z,29.90
2022-08-11T06:52:04.847Z,29.99
2022-08-11T06:54:38.541Z,30.13
2022-08-11T06:57:31.905Z,30.27
2022-08-11T07:00:36.356Z,30.44
2022-08-11T07:03:09.199Z,30.53
2022-08-11T07:05:55.710Z,30.68
2022-08-11T07:09:05.881Z,30.74
2022-08-11T07:12:19.678Z,30.75
2022-08-11T07:15:10.826Z,31.01
2022-08-11T07:18:10.399Z,31.37
2022-08-11T07:21:01.935Z,31.38
2022-08-11T07:23:52.947Z,31.45
2022-08-11T07:26:42.408Z,31.56
2022-08-11T07:29:14.707Z,31.65
2022-08-11T07:31:51.678Z,31.80
2022-08-11T07:34:38.673Z,31.96
2022-08-11T07:37:13.584Z,32.19
2022-08-11T07:39:44.249Z,32.49
2022-08-11T07:42:13.870Z,32.62
2022-08-11T07:45:05.041Z,32.67
2022-08-11T07:47:52.212Z,32.92
2022-08-11T07:50:37.583Z,33.12
2022-08-11T07:53:04.567Z,33.30
2022-08-11T07:55:51.525Z,33.33
2022-08-11T07:58:52.173Z,33.31
2022-08-11T08:01:41.785Z,33.34
2022-08-11T08:04:32.572Z,33.36
2022-08-11T08:07:19.893Z,33.20
2022-08-11T08:10:07.379Z,33.35
2022-08-11T08:12:54.289Z,33.38
2022-08-11T08:15:41.227Z,33.34
2022-08-11T08:18:26.642Z,33.40
2022-08-11T08:20:56.569Z,33.33
2022-08-11T08:23:35.705Z,33.41
2022-08-11T08:26:05.232Z,33.62
2022-08-11T08:28:33.764Z,33.70
2022-08-11T08:31:00.518Z,33.77
2022-08-11T08:33:30.268Z,33.84
2022-08-11T08:36:17.005Z,33.96
2022-08-11T08:38:53.009Z,33.98
2022-08-11T08:41:28.938Z,33.84
2022-08-11T08:44:21.020Z,33.80
2022-08-11T08:46:54.303Z,33.94
2022-08-11T08:49:27.756Z,33.96
2022-08-11T08:52:20.273Z,33.83
2022-08-11T08:54:48.433Z,33.61
2022-08-11T08:57:18.634Z,33.64
2022-08-11T08:59:48.932Z,33.74
2022-08-11T09:02:19.801Z,33.72
2022-08-11T09:05:02.682Z,33.90
2022-08-11T09:07:38.788Z,34.10
2022-08-11T09:10:08.439Z,34.21
2022-08-11T09:12:38.838Z,34.34
2022-08-11T09:15:14.001Z,34.36
2022-08-11T09:17:53.344Z,34.30
2022-08-11T09:20:23.894Z,34.25
2022-08-11T09:24:07.754Z,34.20
2022-08-11T09:26:33.296Z,34.37
2022-08-11T09:29:01.663Z,34.58
2022-08-11T09:31:40.129Z,34.70
2022-08-11T09:34:08.598Z,34.77
2022-08-11T09:36:54.218Z,34.77
2022-08-11T09:39:39.634Z,34.94
2022-08-11T09:42:11.427Z,35.05
2022-08-11T09:44:50.266Z,35.03
2022-08-11T09:47:29.576Z,35.00
2022-08-11T09:50:01.054Z,35.26
2022-08-11T09:52:35.750Z,35.37
2022-08-11T09:55:14.715Z,35.39
2022-08-11T09:58:04.393Z,35.56
2022-08-11T10:00:33.213Z,35.51
2022-08-11T10:03:02.660Z,35.58
2022-08-11T10:05:48.596Z,35.62
2022-08-11T10:08:23.454Z,35.64
2022-08-11T10:10:59.280Z,35.60
2022-08-11T10:14:31.973Z,35.60
2022-08-11T10:16:42.154Z,35.53
2022-08-11T10:19:21.160Z,35.64
2022-08-11T10:22:09.825Z,35.75
2022-08-11T10:24:55.620Z,35.75
2022-08-11T10:27:27.232Z,35.71
2022-08-11T10:30:16.596Z,35.73
2022-08-11T10:33:02.824Z,35.79
2022-08-11T10:35:34.900Z,35.83
2022-08-11T10:38:16.055Z,35.89
2022-08-11T10:41:07.674Z,35.90
2022-08-11T10:44:01.481Z,35.94
2022-08-11T10:46:46.932Z,35.91
2022-08-11T10:49:19.303Z,35.82
2022-08-11T10:52:08.672Z,35.81
2022-08-11T10:55:11.403Z,35.88
2022-08-11T10:58:04.784Z,35.84
2022-08-11T11:00:41.293Z,35.98
2022-08-11T11:03:23.230Z,36.03
2022-08-11T11:06:28.682Z,36.13
2022-08-11T11:08:55.568Z,36.27
2022-08-11T11:11:48.768Z,36.22
2022-08-11T11:14:46.176Z,36.10
2022-08-11T11:17:36.791Z,36.05
2022-08-11T11:20:06.810Z,36.03
2022-08-11T11:22:39.821Z,36.02
2022-08-11T11:25:32.784Z,36.13
2022-08-11T11:28:34.665Z,36.24
2022-08-11T11:31:07.876Z,36.32
2022-08-11T11:34:18.211Z,36.28
2022-08-11T11:36:51.290Z,36.32
2022-08-11T11:39:25.571Z,36.32
2022-08-11T11:41:55.903Z,36.38
2022-08-11T11:44:23.947Z,36.43
2022-08-11T11:46:51.618Z,36.38
2022-08-11T11:51:57.440Z,36.25
2022-08-11T11:54:28.996Z,36.11
2022-08-11T11:57:18.921Z,36.26
2022-08-11T12:00:10.303Z,36.49
2022-08-11T12:02:37.834Z,36.63
2022-08-11T12:05:06.241Z,36.60
2022-08-11T12:08:04.851Z,36.56
2022-08-11T12:10:49.081Z,36.56
2022-08-11T12:13:37.754Z,36.66
2022-08-11T12:16:33.465Z,36.74
2022-08-11T12:19:00.493Z,36.68
2022-08-11T12:21:31.441Z,36.78
2022-08-11T12:24:19.536Z,36.86
2022-08-11T12:26:54.294Z,36.91
2022-08-11T12:29:36.648Z,37.00
2022-08-11T12:32:09.316Z,36.99
2022-08-11T12:34:38.297Z,36.96
2022-08-11T12:37:11.027Z,36.96
2022-08-11T12:40:17.006Z,36.94
2022-08-11T12:43:21.844Z,36.91
2022-08-11T12:45:58.298Z,36.81
2022-08-11T12:49:06.516Z,36.96
2022-08-11T12:52:01.482Z,37.10
2022-08-11T12:54:52.375Z,37.15
2022-08-11T12:57:51.695Z,37.05
2022-08-11T13:00:38.094Z,37.07
2022-08-11T13:03:27.432Z,37.16
2022-08-11T13:06:00.015Z,37.26
2022-08-11T13:08:29.275Z,37.35
2022-08-11T13:11:17.339Z,37.37
2022-08-11T13:13:55.042Z,37.39
2022-08-11T13:16:53.784Z,37.41
2022-08-11T13:19:21.883Z,37.40
2022-08-11T13:21:50.863Z,37.42
2022-08-11T13:24:19.003Z,37.50
2022-08-11T13:26:49.630Z,37.47
2022-08-11T13:29:25.081Z,37.36
2022-08-11T13:31:53.950Z,37.36
2022-08-11T13:34:22.980Z,37.31
2022-08-11T13:36:52.159Z,37.28
2022-08-11T13:39:20.651Z,37.27
2022-08-11T13:41:48.629Z,37.21
2022-08-11T13:44:23.311Z,37.27
2022-08-11T13:46:52.831Z,37.28
2022-08-11T13:49:21.905Z,37.07
2022-08-11T13:51:49.288Z,36.99
2022-08-11T13:54:25.454Z,36.94
2022-08-11T13:56:59.789Z,36.94
2022-08-11T13:59:30.294Z,36.88
2022-08-11T14:02:21.671Z,36.84
2022-08-11T14:05:02.911Z,36.57
2022-08-11T14:07:37.403Z,36.54
2022-08-11T14:10:06.925Z,36.50
2022-08-11T14:12:54.105Z,36.42
2022-08-11T14:15:27.675Z,36.37
2022-08-11T14:18:05.032Z,36.41
2022-08-11T14:20:55.510Z,36.35
2022-08-11T14:23:32.792Z,36.30
2022-08-11T14:26:19.000Z,36.32
2022-08-11T14:28:47.060Z,36.21
2022-08-11T14:31:17.336Z,36.09
2022-08-11T14:34:00.045Z,36.01
2022-08-11T14:36:37.499Z,35.96
2022-08-11T14:39:26.444Z,35.88
2022-08-11T14:42:14.931Z,35.86
2022-08-11T14:45:03.679Z,35.80
2022-08-11T14:47:33.559Z,35.74
2022-08-11T14:50:11.746Z,35.71
2022-08-11T14:52:43.806Z,35.69
2022-08-11T14:55:30.453Z,35.51
2022-08-11T14:57:57.504Z,35.24
2022-08-11T15:00:25.757Z,35.12
2022-08-11T15:03:15.015Z,35.06
2022-08-11T15:05:57.547Z,35.00
2022-08-11T15:08:51.857Z,34.89
2022-08-11T15:11:40.223Z,34.79
2022-08-11T15:14:08.722Z,34.67
2022-08-11T15:16:56.552Z,34.65
2022-08-11T15:19:24.096Z,34.65
2022-08-11T15:22:29.398Z,34.66
2022-08-11T15:24:58.686Z,34.62
2022-08-11T15:27:46.467Z,34.56
2022-08-11T15:30:32.833Z,34.55
2022-08-11T15:33:40.481Z,34.49
2022-08-11T15:36:28.113Z,34.36
2022-08-11T15:38:59.618Z,34.41
2022-08-11T15:41:58.569Z,34.39
2022-08-11T15:45:02.304Z,34.35
2022-08-11T15:47:37.329Z,34.35
2022-08-11T15:50:12.721Z,34.34
2022-08-11T15:52:46.341Z,34.36
2022-08-11T15:55:14.437Z,34.29
2022-08-11T15:58:00.311Z,34.33
2022-08-11T16:00:48.667Z,34.31
2022-08-11T16:04:07.840Z,34.21
2022-08-11T16:06:40.491Z,34.19
2022-08-11T16:09:19.848Z,34.17
2022-08-11T16:11:48.378Z,34.13
2022-08-11T16:14:35.973Z,34.16
2022-08-11T16:17:04.518Z,34.05
2022-08-11T16:19:36.916Z,33.94
2022-08-11T16:22:09.306Z,33.90
2022-08-11T16:27:03.581Z,33.86
2022-08-11T16:27:34.126Z,33.84
2022-08-11T16:30:02.575Z,33.83
2022-08-11T16:32:31.240Z,33.87
2022-08-11T16:35:21.262Z,33.91
2022-08-11T16:38:07.509Z,33.91
2022-08-11T16:40:39.068Z,33.97
2022-08-11T16:43:27.233Z,33.91
2022-08-11T16:46:14.500Z,33.84
2022-08-11T16:48:42.745Z,33.72
2022-08-11T16:51:12.175Z,33.71
2022-08-11T16:53:59.894Z,33.69
2022-08-11T16:56:46.058Z,33.67
2022-08-11T16:59:33.854Z,33.64
2022-08-11T17:02:09.557Z,33.57
2022-08-11T17:05:15.689Z,33.48
2022-08-11T17:08:02.233Z,33.42
2022-08-11T17:11:03.653Z,33.42
2022-08-11T17:13:40.127Z,33.35
2022-08-11T17:16:13.923Z,33.25
2022-08-11T17:18:43.512Z,33.22
2022-08-11T17:21:29.940Z,33.21
2022-08-11T17:24:05.090Z,33.23
2022-08-11T17:26:59.642Z,33.21
2022-08-11T17:29:34.119Z,33.13
2022-08-11T17:32:56.085Z,33.01
2022-08-11T17:35:31.238Z,32.96
2022-08-11T17:38:03.940Z,32.93
2022-08-11T17:40:32.632Z,32.92
2022-08-11T17:43:19.021Z,32.90
2022-08-11T17:46:05.426Z,32.89
2022-08-11T17:48:47.637Z,32.85
2022-08-11T17:51:37.818Z,32.81
2022-08-11T17:54:25.688Z,32.77
2022-08-11T17:57:20.163Z,32.72
2022-08-11T17:59:52.800Z,32.60
2022-08-11T18:02:42.304Z,32.54
2022-08-11T18:05:13.480Z,32.48
2022-08-11T18:08:01.531Z,32.44
2022-08-11T18:10:49.179Z,32.40
2022-08-11T18:13:44.620Z,32.39
2022-08-11T18:16:30.618Z,32.53
2022-08-11T18:19:16.123Z,32.67
2022-08-11T18:22:14.575Z,32.66
2022-08-11T18:25:07.315Z,32.50
2022-08-11T18:27:54.256Z,32.37
2022-08-11T18:30:42.196Z,32.23
2022-08-11T18:36:41.404Z,31.96
2022-08-11T18:39:32.897Z,31.86
2022-08-11T18:42:29.394Z,31.77
2022-08-11T18:45:19.757Z,31.68
2022-08-11T18:48:09.207Z,31.58
2022-08-11T18:51:29.997Z,31.50
2022-08-11T18:54:07.700Z,31.44
2022-08-11T18:56:54.025Z,31.40
2022-08-11T18:59:44.852Z,31.28
2022-08-11T19:02:31.819Z,31.15
2022-08-11T19:06:37.303Z,31.04
2022-08-11T19:08:31.064Z,30.92
2022-08-11T19:11:16.491Z,30.81
2022-08-11T19:14:06.799Z,30.67
2022-08-11T19:16:53.505Z,30.60
2022-08-11T19:19:40.738Z,30.48
2022-08-11T19:22:29.148Z,30.43
2022-08-11T19:25:15.506Z,30.37
2022-08-11T19:28:02.404Z,30.31
2022-08-11T19:30:47.691Z,30.22
2022-08-11T19:33:59.855Z,30.09
2022-08-11T19:36:41.104Z,30.00
2022-08-11T19:39:28.646Z,29.93
2022-08-11T19:42:15.180Z,29.83
2022-08-11T19:45:03.426Z,29.74
2022-08-11T19:47:55.878Z,29.68
2022-08-11T19:50:54.650Z,29.57
2022-08-11T19:53:40.935Z,29.53
2022-08-11T19:56:27.323Z,29.46
2022-08-11T19:59:12.357Z,29.42
2022-08-11T20:02:12.673Z,29.35
2022-08-11T20:04:59.208Z,29.21
2022-08-11T20:07:44.877Z,29.13
2022-08-11T20:10:33.632Z,29.04
2022-08-11T20:13:21.883Z,28.91
2022-08-11T20:16:08.264Z,28.84
2022-08-11T20:18:54.329Z,28.78
2022-08-11T20:21:41.381Z,28.74
2022-08-11T20:24:27.592Z,28.74
2022-08-11T20:27:18.844Z,28.72
2022-08-11T20:30:09.639Z,28.68
2022-08-11T20:32:56.073Z,28.65
2022-08-11T20:35:42.614Z,28.63
2022-08-11T20:38:28.708Z,28.60
2022-08-11T20:41:16.042Z,28.59
2022-08-11T20:44:08.056Z,28.52
2022-08-11T20:49:58.625Z,28.39
2022-08-11T20:52:48.733Z,28.34
2022-08-11T20:55:46.345Z,28.31
2022-08-11T21:01:46.299Z,28.23
2022-08-11T21:04:32.875Z,28.15
2022-08-11T21:07:28.092Z,28.10
2022-08-11T21:10:23.290Z,28.03
2022-08-11T21:13:25.317Z,27.97
2022-08-11T21:16:25.411Z,27.92
2022-08-11T21:19:15.391Z,27.87
2022-08-11T21:22:01.146Z,27.85
2022-08-11T21:24:50.956Z,27.86
2022-08-11T21:27:38.361Z,27.81
2022-08-11T21:30:23.672Z,27.77
2022-08-11T21:33:09.822Z,27.70
2022-08-11T21:35:56.153Z,27.61
2022-08-11T21:38:41.437Z,27.56
2022-08-11T21:41:28.785Z,27.50
2022-08-11T21:44:16.613Z,27.46
2022-08-11T21:47:02.891Z,27.36
2022-08-11T21:49:49.589Z,27.32
2022-08-11T21:52:35.379Z,27.29
2022-08-11T21:55:21.726Z,27.24
2022-08-11T21:58:07.559Z,27.15
2022-08-11T22:00:53.427Z,27.11
2022-08-11T22:03:49.299Z,27.01
2022-08-11T22:06:35.809Z,26.99
2022-08-11T22:09:21.670Z,26.94
2022-08-11T22:12:34.062Z,26.91
2022-08-11T22:15:13.219Z,26.82
2022-08-11T22:17:58.268Z,26.72
2022-08-11T22:20:45.691Z,26.63
2022-08-11T22:23:36.517Z,26.54
2022-08-11T22:26:24.353Z,26.47
2022-08-11T22:29:10.155Z,26.45
2022-08-11T22:31:56.647Z,26.44
2022-08-11T22:34:52.635Z,26.36
2022-08-11T22:37:40.481Z,26.33
2022-08-11T22:40:27.877Z,26.29
2022-08-11T22:43:12.852Z,26.24
2022-08-11T22:45:58.339Z,26.23
2022-08-11T22:48:47.229Z,26.21
2022-08-11T22:51:33.664Z,26.17
2022-08-11T22:54:22.665Z,26.15
2022-08-11T22:57:08.640Z,26.12
2022-08-11T22:59:54.928Z,26.04
2022-08-11T23:02:40.799Z,25.96
2022-08-11T23:05:27.668Z,25.91
2022-08-11T23:08:15.999Z,25.91
2022-08-11T23:11:02.213Z,25.86
2022-08-11T23:13:50.649Z,25.83
2022-08-11T23:16:37.447Z,25.80
2022-08-11T23:20:06.846Z,25.77
2022-08-11T23:22:38.660Z,25.70
2022-08-11T23:25:34.869Z,25.70
2022-08-11T23:28:21.460Z,25.71
2022-08-11T23:31:09.475Z,25.68
2022-08-11T23:34:00.872Z,25.65
2022-08-11T23:36:47.331Z,25.59
2022-08-11T23:39:34.199Z,25.53
2022-08-11T23:42:20.400Z,25.45
2022-08-11T23:45:09.492Z,25.42
2022-08-11T23:47:57.314Z,25.36
2022-08-11T23:50:44.290Z,25.33
2022-08-11T23:53:31.149Z,25.26
2022-08-11T23:56:21.662Z,25.20
2022-08-11T23:59:08.949Z,25.13
